Time;durP1;ratioP1;P1;durP2;ratioP2;P2;SDS_P1;SDS_P2;PMS_P1;PMS_P2;Temp;Humidity;BMP_temperature;BMP_pressure;BME280_temperature;BME280_humidity;BME280_pressure;Samples;Min_cycle;Max_cycle;Signal;HPM_P1;HPM_P2
2021/03/25 05:38:06;;;;;;;54.65;27.55;;;6.30;80.20;;;;;;6090970;22;20933;-84
2021/03/25 05:51:17;;;;;;;45.22;28.25;;;6.40;79.10;;;;;;6105550;23;20219;-87
2021/03/25 05:59:43;;;;;;;49.15;26.52;;;6.50;78.40;;;;;;6112559;22;20217;-86
2021/03/25 06:02:53;;;;;;;43.83;25.75;;;6.50;81.30;;;;;;6112493;22;20517;-89
2021/03/25 06:05:19;;;;;;;44.00;25.42;;;6.50;78.10;;;;;;6073479;23;21327;-85
2021/03/25 06:07:49;;;;;;;38.08;24.42;;;6.50;80.80;;;;;;6194219;23;20166;-86
2021/03/25 06:10:32;;;;;;;37.20;25.20;;;6.60;80.70;;;;;;6219247;23;20221;-87
2021/03/25 06:18:17;;;;;;;46.08;25.67;;;6.70;77.50;;;;;;6146333;22;20451;-88
2021/03/25 06:23:40;;;;;;;44.53;26.55;;;6.80;77.50;;;;;;6107498;23;20187;-87
2021/03/25 06:26:28;;;;;;;40.90;24.80;;;9.10;80.70;;;;;;6092718;23;20139;-86
2021/03/25 06:29:04;;;;;;;39.95;25.30;;;7.30;77.70;;;;;;6118369;23;20123;-88
2021/03/25 06:37:38;;;;;;;43.85;23.23;;;7.00;76.90;;;;;;6250356;22;20912;-89
2021/03/25 06:40:16;;;;;;;44.75;22.63;;;7.00;79.50;;;;;;6241527;22;20190;-86
2021/03/25 06:42:56;;;;;;;42.13;25.90;;;6.60;76.50;;;;;;6195499;22;20211;-87
2021/03/25 06:45:28;;;;;;;40.42;26.30;;;7.90;76.70;;;;;;6092132;23;20155;-88
2021/03/25 06:48:24;;;;;;;42.10;25.23;;;7.40;78.40;;;;;;6114850;23;20138;-87
2021/03/25 06:51:36;;;;;;;42.55;23.98;;;7.50;78.20;;;;;;6121591;23;20141;-87
2021/03/25 06:54:15;;;;;;;44.80;25.15;;;8.50;75.00;;;;;;6108625;23;20146;-88
2021/03/25 06:56:45;;;;;;;46.50;26.58;;;7.80;76.70;;;;;;6085001;23;20178;-89
2021/03/25 06:59:23;;;;;;;42.60;26.00;;;7.80;75.50;;;;;;6107555;23;20547;-85
2021/03/25 07:02:13;;;;;;;46.40;26.20;;;7.90;75.60;;;;;;6112070;23;20169;-89
2021/03/25 07:04:56;;;;;;;41.22;25.77;;;8.20;74.90;;;;;;6073509;23;20394;-89
2021/03/25 07:08:16;;;;;;;40.53;26.80;;;8.50;73.60;;;;;;6119778;23;20224;-89
2021/03/25 07:22:35;;;;;;;37.93;26.80;;;10.50;60.20;;;;;;6116108;22;20444;-88
2021/03/25 07:25:22;;;;;;;37.93;25.87;;;10.60;55.70;;;;;;6113080;23;20389;-87
2021/03/25 07:27:49;;;;;;;46.40;25.23;;;10.20;55.90;;;;;;6089037;23;20377;-87
2021/03/25 07:30:20;;;;;;;33.83;23.50;;;11.50;55.30;;;;;;6114333;22;20382;-86
2021/03/25 07:32:56;;;;;;;35.13;24.87;;;11.20;53.70;;;;;;6113590;23;20378;-87
2021/03/25 07:35:43;;;;;;;38.73;25.77;;;14.40;54.30;;;;;;6090361;23;20380;-88
2021/03/25 07:38:24;;;;;;;35.60;24.43;;;10.90;52.30;;;;;;6088520;23;20426;-85
2021/03/25 07:41:25;;;;;;;34.60;22.67;;;15.00;56.30;;;;;;6088286;22;20380;-86
2021/03/25 07:44:31;;;;;;;35.10;23.30;;;12.10;52.40;;;;;;6087512;23;20386;-87
2021/03/25 07:47:03;;;;;;;40.13;24.33;;;14.70;53.90;;;;;;6176790;23;20546;-86
2021/03/25 07:49:38;;;;;;;32.87;23.90;;;16.00;56.60;;;;;;6176841;23;20400;-85
2021/03/25 07:52:25;;;;;;;40.13;25.87;;;15.40;55.60;;;;;;6075706;23;20386;-88
2021/03/25 07:54:51;;;;;;;38.30;24.50;;;14.40;55.60;;;;;;6117635;22;20393;-86
2021/03/25 07:57:44;;;;;;;36.50;25.83;;;12.90;57.50;;;;;;6091889;23;20462;-87
2021/03/25 08:00:34;;;;;;;35.63;24.50;;;14.40;54.50;;;;;;6090363;23;20150;-88
2021/03/25 08:03:15;;;;;;;35.57;23.87;;;13.10;53.70;;;;;;6091583;23;20398;-88
2021/03/25 08:05:42;;;;;;;35.00;23.67;;;12.40;53.10;;;;;;6114828;23;20366;-87
2021/03/25 08:08:34;;;;;;;31.20;23.93;;;14.80;55.40;;;;;;6080844;23;20390;-87
2021/03/25 08:11:11;;;;;;;38.67;24.53;;;12.10;53.20;;;;;;6080884;23;20712;-87
2021/03/25 08:14:05;;;;;;;37.83;24.20;;;14.20;55.20;;;;;;6086043;23;20921;-87
2021/03/25 08:16:31;;;;;;;42.50;25.47;;;16.00;56.80;;;;;;6100597;23;20406;-87
2021/03/25 08:19:16;;;;;;;40.13;27.43;;;13.20;55.70;;;;;;6077388;23;20463;-88
2021/03/25 08:22:06;;;;;;;34.80;25.50;;;12.10;52.70;;;;;;6080600;23;20433;-88
2021/03/25 08:24:50;;;;;;;39.80;26.63;;;11.80;52.50;;;;;;6082641;23;20850;-88
2021/03/25 08:27:41;;;;;;;44.30;27.73;;;11.90;52.30;;;;;;6086726;23;20450;-88
2021/03/25 08:30:36;;;;;;;50.73;29.73;;;13.10;53.10;;;;;;6093103;23;20474;-88
2021/03/25 08:33:17;;;;;;;42.50;29.10;;;12.30;52.70;;;;;;6093437;22;20413;-87
2021/03/25 08:35:52;;;;;;;41.60;27.47;;;14.90;55.10;;;;;;6095728;22;20382;-88
2021/03/25 08:38:55;;;;;;;50.17;30.47;;;14.80;53.50;;;;;;6129991;22;20441;-87
2021/03/25 08:41:44;;;;;;;47.70;31.63;;;14.60;53.50;;;;;;6066248;23;20399;-86
2021/03/25 08:44:32;;;;;;;50.20;30.60;;;12.50;52.30;;;;;;6116231;23;20446;-87
2021/03/25 08:47:12;;;;;;;41.10;28.80;;;12.60;52.00;;;;;;6059611;22;20474;-85
2021/03/25 08:52:25;;;;;;;47.40;31.27;;;12.40;51.90;;;;;;6116544;23;20471;-87
2021/03/25 08:55:47;;;;;;;53.10;33.60;;;15.00;54.00;;;;;;6090500;23;20398;-86
2021/03/25 08:58:18;;;;;;;53.93;34.17;;;15.20;53.10;;;;;;6171884;23;20430;-87
2021/03/25 09:08:42;;;;;;;48.93;33.43;;;13.30;67.70;;;;;;6107067;22;20467;-85
2021/03/25 09:17:05;;;;;;;50.77;32.83;;;13.80;49.90;;;;;;6100531;23;20490;31
2021/03/25 09:25:17;;;;;;;54.93;36.70;;;14.20;49.30;;;;;;6115052;23;20453;-88
2021/03/25 09:27:55;;;;;;;53.40;35.43;;;14.30;49.30;;;;;;6090893;23;20485;-88
2021/03/25 09:30:43;;;;;;;54.00;37.07;;;14.30;51.50;;;;;;6091577;23;20382;-90
2021/03/25 09:35:56;;;;;;;55.33;36.97;;;14.40;52.50;;;;;;6114937;22;20469;-84
2021/03/25 09:38:57;;;;;;;62.27;39.13;;;14.90;58.60;;;;;;6116187;22;20492;-90
2021/03/25 09:44:17;;;;;;;60.30;40.70;;;15.50;47.10;;;;;;6092813;23;20453;-87
2021/03/25 09:46:55;;;;;;;54.63;38.23;;;;;;;;;;6210176;23;20386;-88
2021/03/25 09:49:45;;;;;;;58.83;41.33;;;16.50;49.30;;;;;;6107857;23;20378;-87
2021/03/25 09:52:17;;;;;;;54.50;38.17;;;;;;;;;;6109425;23;20362;-86
2021/03/25 09:55:11;;;;;;;54.90;39.50;;;17.60;58.60;;;;;;6209182;23;20382;-85
2021/03/25 09:57:42;;;;;;;56.50;40.67;;;;;;;;;;6085149;23;20458;-86
2021/03/25 10:00:35;;;;;;;57.00;38.87;;;18.80;54.90;;;;;;6216092;23;20514;-87
2021/03/25 10:03:16;;;;;;;51.07;38.53;;;;;;;;;;6206219;23;20412;-86
2021/03/25 10:05:46;;;;;;;58.30;40.90;;;;;;;;;;6148147;23;20441;-87
2021/03/25 10:08:19;;;;;;;58.80;41.17;;;;;;;;;;6092160;23;20402;-88
2021/03/25 10:10:51;;;;;;;54.13;41.47;;;;;;;;;;6092472;23;20403;-87
2021/03/25 10:13:37;;;;;;;48.03;37.00;;;21.70;38.50;;;;;;6114824;23;20446;-88
2021/03/25 10:16:30;;;;;;;52.50;39.50;;;21.80;38.20;;;;;;6090590;23;20394;-87
2021/03/25 10:19:05;;;;;;;51.87;41.53;;;24.60;38.90;;;;;;6218435;23;20394;-89
2021/03/25 10:21:53;;;;;;;50.63;40.20;;;;;;;;;;6135210;23;20472;-89
2021/03/25 10:24:43;;;;;;;;;;;;;;;;;;;;;
2021/03/25 10:27:51;;;;;;;51.73;39.60;;;23.00;40.10;;;;;;6269430;23;20350;-87
2021/03/25 10:30:31;;;;;;;48.70;40.93;;;;;;;;;;6266503;22;20389;-85
2021/03/25 10:35:56;;;;;;;51.90;39.47;;;20.30;35.70;;;;;;6097558;23;20475;-86
2021/03/25 10:38:29;;;;;;;50.10;37.10;;;;;;;;;;6089729;23;20442;-89
2021/03/25 10:46:25;;;;;;;48.33;37.20;;;21.90;38.50;;;;;;6103669;22;20449;-87
2021/03/25 10:48:54;;;;;;;49.87;37.00;;;21.40;37.20;;;;;;6144065;23;21785;-86
2021/03/25 10:57:15;;;;;;;45.60;37.40;;;;;;;;;;6109178;22;21031;-89
2021/03/25 11:00:22;;;;;;;52.30;38.43;;;20.20;38.70;;;;;;6117398;23;20393;-88
2021/03/25 11:02:48;;;;;;;44.37;36.67;;;21.20;41.30;;;;;;6143538;22;20393;-87
2021/03/25 11:05:21;;;;;;;46.73;34.10;;;20.30;40.20;;;;;;6113336;23;20385;-87
2021/03/25 11:07:59;;;;;;;44.67;36.43;;;20.60;39.60;;;;;;6118487;22;20425;-86
2021/03/25 11:13:25;;;;;;;41.97;34.13;;;;;;;;;;6112505;23;20442;-89
2021/03/25 11:16:19;;;;;;;45.67;35.53;;;22.00;39.00;;;;;;6090079;22;20386;-88
2021/03/25 11:18:59;;;;;;;42.60;36.07;;;21.80;39.30;;;;;;6085067;23;20441;-87
2021/03/25 11:21:43;;;;;;;42.43;34.93;;;;;;;;;;6112641;22;20386;-85
2021/03/25 11:24:30;;;;;;;36.80;31.60;;;21.70;39.70;;;;;;6188413;23;20915;-88
2021/03/25 11:27:34;;;;;;;35.90;31.43;;;22.00;38.80;;;;;;6088826;23;20389;-90
2021/03/25 11:30:08;;;;;;;34.00;29.30;;;22.10;38.50;;;;;;6083858;23;20398;-87
2021/03/25 11:40:44;;;;;;;23.60;21.07;;;21.30;39.10;;;;;;6094555;23;20488;-87
2021/03/25 11:48:33;;;;;;;33.47;25.27;;;21.20;38.90;;;;;;6118568;22;20461;-88
2021/03/25 11:51:34;;;;;;;29.57;23.00;;;20.40;40.70;;;;;;6112956;23;20386;-89
2021/03/25 11:54:36;;;;;;;28.13;23.50;;;21.90;39.40;;;;;;6113443;23;20455;-87
2021/03/25 11:57:47;;;;;;;27.30;22.93;;;24.90;40.40;;;;;;6125341;23;20445;-89
2021/03/25 12:00:20;;;;;;;25.83;22.13;;;22.70;38.60;;;;;;6091198;23;20370;-87
2021/03/25 12:05:22;;;;;;;28.40;25.40;;;22.50;38.30;;;;;;6084299;23;20450;-88
2021/03/25 12:10:34;;;;;;;28.37;24.73;;;21.80;39.50;;;;;;6107906;23;20441;-86
2021/03/25 12:13:04;;;;;;;29.93;26.77;;;22.30;46.80;;;;;;6237750;23;20460;-89
2021/03/25 12:15:37;;;;;;;28.17;25.47;;;22.50;44.10;;;;;;6237494;23;20402;-89
2021/03/25 12:18:41;;;;;;;;;;;;;;;;;;;;;
2021/03/25 12:21:27;;;;;;;;;;;;;;;;;;;;;
2021/03/25 12:23:58;;;;;;;174.67;105.20;;;23.40;45.90;;;;;;6214040;23;20401;-89
2021/03/25 12:26:25;;;;;;;29.87;25.80;;;25.50;32.60;;;;;;6235878;23;20465;-88
2021/03/25 12:29:25;;;;;;;31.00;25.37;;;26.00;32.90;;;;;;6208291;23;20391;-89
2021/03/25 12:31:55;;;;;;;27.70;24.70;;;24.70;36.60;;;;;;6241202;23;20350;-88
2021/03/25 12:37:17;;;;;;;24.83;22.13;;;;;;;;;;6177303;22;20433;-90
2021/03/25 12:42:59;;;;;;;27.80;22.10;;;24.40;29.60;;;;;;6076942;23;20483;-88
2021/03/25 12:46:16;;;;;;;;;;;;;;;;;;;;;
2021/03/25 12:48:49;;;;;;;24.63;21.87;;;25.10;30.60;;;;;;6065215;23;20395;-88
2021/03/25 12:53:48;;;;;;;24.57;22.17;;;23.70;30.00;;;;;;6112230;23;20487;-87
2021/03/25 12:57:20;;;;;;;26.97;24.10;;;25.80;31.50;;;;;;6091417;23;20397;-87
2021/03/25 13:08:19;;;;;;;;;;;;;;;;;;;;;
2021/03/25 13:12:04;;;;;;;20.07;18.00;;;24.10;30.10;;;;;;6300515;22;20369;-89
2021/03/25 13:14:49;;;;;;;22.20;19.90;;;26.10;30.80;;;;;;6181182;23;20406;-89
2021/03/25 13:17:29;;;;;;;20.50;18.37;;;26.60;32.70;;;;;;6206346;23;20430;-87
2021/03/25 13:26:19;;;;;;;19.40;17.37;;;26.20;33.00;;;;;;6102170;23;20460;-89
2021/03/25 13:31:38;;;;;;;15.50;13.90;;;23.60;29.50;;;;;;6113640;23;20419;-87
2021/03/25 13:34:34;;;;;;;15.63;14.03;;;26.00;30.40;;;;;;6116784;23;20375;-88
2021/03/25 13:49:03;;;;;;;22.43;19.57;;;;;;;;;;6104487;23;20414;-87
2021/03/25 13:51:50;;;;;;;25.37;19.37;;;17.90;58.00;;;;;;6218000;23;20379;-90
2021/03/25 13:54:41;;;;;;;23.47;19.60;;;17.60;50.20;;;;;;6096380;23;20410;-87
2021/03/25 13:57:23;;;;;;;;;;;;;;;;;;;;;
2021/03/25 14:00:11;;;;;;;;;;;;;;;;;;;;;
2021/03/25 14:05:19;;;;;;;25.80;20.23;;;16.80;50.00;;;;;;6108078;23;21028;-89
2021/03/25 14:08:23;;;;;;;26.00;20.47;;;16.50;48.30;;;;;;6112862;23;20386;-86
2021/03/25 14:11:50;;;;;;;24.57;20.70;;;16.70;48.30;;;;;;6093269;23;20394;-87
2021/03/25 14:14:47;;;;;;;21.03;18.70;;;17.90;47.50;;;;;;6112067;23;20378;-87
2021/03/25 14:17:27;;;;;;;21.70;17.60;;;18.80;47.40;;;;;;6063790;23;20437;-89
2021/03/25 14:19:58;;;;;;;18.80;17.00;;;16.50;47.30;;;;;;6112510;23;20714;-88
2021/03/25 14:23:22;;;;;;;18.53;16.63;;;16.60;46.70;;;;;;6089443;23;20517;-90
2021/03/25 14:25:55;;;;;;;20.50;17.80;;;19.00;48.60;;;;;;6110585;23;20402;-87
2021/03/25 14:31:23;;;;;;;17.13;15.40;;;18.70;49.70;;;;;;6085075;22;20487;-87
2021/03/25 14:33:53;;;;;;;20.07;16.20;;;16.20;49.20;;;;;;6113909;23;20456;-86
2021/03/25 14:42:07;;;;;;;17.50;15.63;;;15.70;51.30;;;;;;6116411;23;20437;-89
2021/03/25 14:44:47;;;;;;;17.27;15.37;;;15.60;49.80;;;;;;6142653;23;20615;-86
2021/03/25 14:50:04;;;;;;;17.87;15.97;;;15.40;48.60;;;;;;6233050;23;20464;-87
2021/03/25 14:52:44;;;;;;;18.10;16.33;;;17.20;50.10;;;;;;6205799;23;20458;-88
2021/03/25 14:55:17;;;;;;;22.80;17.07;;;15.20;49.90;;;;;;6209047;23;20412;-87
2021/03/25 14:57:45;;;;;;;18.67;15.53;;;15.70;49.90;;;;;;6240183;23;20433;-87
2021/03/25 15:00:29;;;;;;;15.30;14.10;;;15.00;50.50;;;;;;6212930;23;20405;-87
2021/03/25 15:03:26;;;;;;;15.33;14.03;;;14.80;50.80;;;;;;6241402;23;20370;-88
2021/03/25 15:08:48;;;;;;;16.60;14.13;;;14.80;52.80;;;;;;6229241;23;20456;-88
2021/03/25 15:11:16;;;;;;;14.70;13.20;;;15.60;53.30;;;;;;6270535;22;20362;-89
2021/03/25 15:16:44;;;;;;;16.53;14.87;;;15.50;52.50;;;;;;6239813;22;20437;-87
2021/03/25 15:27:21;;;;;;;14.60;13.17;;;14.80;52.20;;;;;;6208508;23;20431;-86
2021/03/25 15:29:55;;;;;;;14.83;13.60;;;14.30;51.40;;;;;;6089892;23;20469;-86
2021/03/25 15:32:21;;;;;;;21.53;14.90;;;14.90;52.80;;;;;;6114798;23;20426;-86
2021/03/25 15:35:13;;;;;;;;;;;;;;;;;;;;;
2021/03/25 15:37:45;;;;;;;16.23;14.67;;;14.80;54.00;;;;;;6158638;22;20207;-87
2021/03/25 15:40:21;;;;;;;15.90;14.20;;;14.80;54.10;;;;;;6238395;23;20381;-88
2021/03/25 15:43:02;;;;;;;13.93;12.77;;;14.70;54.60;;;;;;6235868;23;20371;-87
2021/03/25 15:46:10;;;;;;;15.97;12.40;;;14.70;55.10;;;;;;6212420;23;20438;-87
2021/03/25 15:49:26;;;;;;;13.73;12.40;;;15.00;55.10;;;;;;6231200;23;20382;-88
2021/03/25 15:52:00;;;;;;;13.33;12.03;;;14.80;64.00;;;;;;6236525;23;20469;-87
2021/03/25 15:54:42;;;;;;;15.63;13.00;;;14.20;59.30;;;;;;6212185;23;20468;-88
2021/03/25 15:57:11;;;;;;;10.40;9.33;;;14.10;59.70;;;;;;6210265;23;20417;-89
2021/03/25 15:59:42;;;;;;;12.70;10.80;;;14.00;57.70;;;;;;6211670;23;20398;-87
2021/03/25 16:02:15;;;;;;;9.80;8.87;;;13.90;55.30;;;;;;6203822;23;20443;-86
2021/03/25 16:05:22;;;;;;;9.83;8.30;;;13.80;55.30;;;;;;6233595;22;20394;-88
2021/03/25 16:08:02;;;;;;;10.97;9.90;;;14.10;54.00;;;;;;6201927;23;20379;-89
2021/03/25 16:13:23;;;;;;;10.50;9.50;;;14.90;55.10;;;;;;6257045;23;20452;-87
2021/03/25 16:15:56;;;;;;;7.87;7.17;;;15.40;54.80;;;;;;6269260;22;20385;-87
2021/03/25 16:18:27;;;;;;;9.70;8.80;;;14.00;54.90;;;;;;6243794;22;20440;-87
2021/03/25 16:21:09;;;;;;;;;;;;;;;;;;;;;
2021/03/25 16:23:49;;;;;;;10.10;9.20;;;14.00;55.10;;;;;;6156921;22;20434;-89
2021/03/25 16:26:28;;;;;;;;;;;;;;;;;;;;;
2021/03/25 16:28:57;;;;;;;10.30;9.20;;;13.90;56.60;;;;;;6107139;23;20362;-88
2021/03/25 16:31:39;;;;;;;13.00;10.10;;;13.70;56.90;;;;;;6114209;23;20387;-87
2021/03/25 16:34:16;;;;;;;12.97;11.67;;;13.70;58.40;;;;;;6090204;23;20416;-87
2021/03/25 16:42:10;;;;;;;;;;;;;;;;;;;;;
2021/03/25 16:45:01;;;;;;;15.30;13.70;;;16.20;59.70;;;;;;6188690;22;20500;-86
2021/03/25 16:50:26;;;;;;;14.43;13.00;;;13.70;58.60;;;;;;6110059;23;20449;-87
2021/03/25 16:53:07;;;;;;;16.07;13.50;;;16.00;60.10;;;;;;6117053;23;20385;-87
2021/03/25 16:58:13;;;;;;;12.90;11.60;;;14.00;58.90;;;;;;6102837;23;20512;-84
2021/03/25 17:00:41;;;;;;;12.80;11.60;;;13.70;59.60;;;;;;6092283;23;20378;-86
2021/03/25 17:03:10;;;;;;;12.37;11.10;;;13.70;59.20;;;;;;6093715;23;20401;-87
2021/03/25 17:05:37;;;;;;;12.07;10.77;;;13.90;59.00;;;;;;6092210;23;20394;-86
2021/03/25 17:08:14;;;;;;;14.40;11.87;;;13.90;58.70;;;;;;6118493;23;20402;-85
2021/03/25 17:10:45;;;;;;;12.10;11.00;;;13.80;58.60;;;;;;6091966;23;20469;-88
2021/03/25 17:16:15;;;;;;;11.33;10.17;;;11.50;55.90;;;;;;6084860;23;20458;-88
2021/03/25 17:21:25;;;;;;;19.63;11.40;;;13.70;57.70;;;;;;6063983;23;20511;-88
2021/03/25 17:23:56;;;;;;;11.47;10.13;;;13.70;58.80;;;;;;6085558;23;20419;-87
2021/03/25 17:26:54;;;;;;;12.43;11.30;;;13.70;59.00;;;;;;6087767;23;20403;-86
2021/03/25 17:34:52;;;;;;;12.87;11.57;;;13.60;57.70;;;;;;6078352;23;20438;-88
2021/03/25 17:37:24;;;;;;;12.43;11.20;;;13.60;59.70;;;;;;6091077;23;20425;-85
2021/03/25 17:45:38;;;;;;;10.57;9.77;;;13.20;59.50;;;;;;6079277;23;20507;-87
2021/03/25 17:50:54;;;;;;;11.80;10.07;;;13.20;59.40;;;;;;6050348;23;20480;-86
2021/03/25 17:53:30;;;;;;;10.30;9.40;;;14.60;60.70;;;;;;6092664;23;20381;-86
2021/03/25 18:01:11;;;;;;;10.57;9.67;;;13.00;76.70;;;;;;6095136;23;20446;-86
2021/03/25 18:06:18;;;;;;;10.30;9.40;;;12.60;66.80;;;;;;6121125;23;20449;-88
2021/03/25 18:22:11;;;;;;;9.40;8.50;;;12.50;70.30;;;;;;6092417;22;20453;-88
2021/03/25 18:28:11;;;;;;;12.87;9.10;;;12.50;71.00;;;;;;6067185;23;20447;-88
2021/03/25 18:40:10;;;;;;;12.60;8.90;;;12.60;73.60;;;;;;6087073;23;20438;-87
2021/03/25 18:42:36;;;;;;;11.70;10.60;;;12.50;73.60;;;;;;6088041;23;20399;-87
2021/03/25 18:50:22;;;;;;;9.87;8.97;;;12.60;76.50;;;;;;6064351;23;20447;-86
2021/03/25 18:52:56;;;;;;;9.77;8.87;;;12.50;81.60;;;;;;6061292;23;20391;-89
2021/03/25 18:55:28;;;;;;;13.17;9.70;;;12.60;80.10;;;;;;6061315;23;20364;-89
2021/03/25 18:57:59;;;;;;;9.53;8.60;;;12.50;85.00;;;;;;6158615;23;20416;-89
2021/03/25 19:03:10;;;;;;;10.27;9.27;;;12.40;85.90;;;;;;6214404;22;20426;-87
2021/03/25 19:05:39;;;;;;;9.43;8.73;;;12.40;90.50;;;;;;6240166;23;20390;-87
2021/03/25 19:08:08;;;;;;;9.93;9.13;;;12.40;91.00;;;;;;6240456;23;20354;-87
2021/03/25 19:10:45;;;;;;;10.40;9.60;;;12.90;90.10;;;;;;6211606;22;21752;-88
2021/03/25 19:18:37;;;;;;;10.03;9.10;;;12.40;86.90;;;;;;6106355;22;20453;-88
2021/03/25 19:23:44;;;;;;;11.43;9.40;;;12.50;87.80;;;;;;6112476;23;20437;-88
2021/03/25 19:26:12;;;;;;;11.00;10.00;;;12.40;90.60;;;;;;6094930;23;20383;-89
2021/03/25 19:28:39;;;;;;;10.17;8.97;;;12.50;90.70;;;;;;6093555;23;20378;-87
2021/03/25 19:31:12;;;;;;;11.10;10.17;;;12.50;90.40;;;;;;6083743;22;20445;-88
2021/03/25 19:33:49;;;;;;;10.60;9.60;;;12.40;87.40;;;;;;6171019;23;20438;-88
2021/03/25 19:36:26;;;;;;;10.63;9.43;;;12.30;90.60;;;;;;6118811;23;20412;-88
2021/03/25 19:38:52;;;;;;;9.97;9.07;;;12.30;90.40;;;;;;6141564;23;20449;-86
2021/03/25 19:41:29;;;;;;;10.80;9.33;;;12.20;90.50;;;;;;6093576;23;20378;-87
2021/03/25 19:43:54;;;;;;;10.90;10.00;;;12.40;88.70;;;;;;6118599;23;20382;-87
2021/03/25 19:46:24;;;;;;;11.80;10.70;;;12.20;91.30;;;;;;6107820;22;20446;-88
2021/03/25 19:49:01;;;;;;;12.87;10.23;;;12.20;90.50;;;;;;6119790;23;20138;-88
2021/03/25 20:12:10;;;;;;;11.00;10.10;;;12.20;90.20;;;;;;6107951;23;20440;-89
2021/03/25 20:14:37;;;;;;;10.70;9.20;;;12.30;91.40;;;;;;6120426;23;20370;-86
2021/03/25 20:22:54;;;;;;;11.47;10.20;;;12.10;90.80;;;;;;6184983;23;20514;-87
2021/03/25 20:25:20;;;;;;;10.70;9.60;;;11.90;90.60;;;;;;6213529;23;20392;-86
2021/03/25 20:49:02;;;;;;;12.33;10.77;;;11.60;84.40;;;;;;6102570;23;20445;-87
2021/03/25 20:51:30;;;;;;;14.47;12.40;;;11.50;82.40;;;;;;6065305;23;20378;-88
2021/03/25 21:22:35;;;;;;;15.97;13.70;;;10.80;60.30;;;;;;6063182;22;20442;-88
2021/03/25 21:25:04;;;;;;;12.90;11.60;;;14.20;70.70;;;;;;6191170;23;20579;-88
2021/03/25 21:30:07;;;;;;;15.43;13.67;;;10.50;69.50;;;;;;6128137;22;20495;-89
2021/03/25 21:32:36;;;;;;;15.57;13.87;;;12.90;70.80;;;;;;6122146;23;20494;-88
2021/03/25 22:19:28;;;;;;;18.60;14.13;;;8.80;68.00;;;;;;6245815;22;20229;-88
2021/03/25 22:24:50;;;;;;;17.93;13.93;;;8.30;67.30;;;;;;6158000;22;20429;-88
2021/03/25 22:27:28;;;;;;;18.77;14.20;;;8.70;80.00;;;;;;6123894;23;20410;-86
2021/03/25 22:30:19;;;;;;;20.33;14.13;;;11.20;71.60;;;;;;6215072;23;20384;-88
2021/03/25 22:48:20;;;;;;;23.90;16.00;;;8.40;70.30;;;;;;6163819;23;20199;-87
2021/03/25 22:51:03;;;;;;;22.85;16.73;;;12.30;77.00;;;;;;6182958;23;20464;-88
2021/03/25 22:56:41;;;;;;;20.37;16.50;;;8.60;71.50;;;;;;6182586;23;20364;-89
2021/03/25 22:59:18;;;;;;;23.97;16.33;;;10.80;72.80;;;;;;6158121;23;20427;-88
2021/03/25 23:02:09;;;;;;;21.27;15.97;;;9.90;76.50;;;;;;6134495;23;20396;-88
2021/03/25 23:17:56;;;;;;;;;;;;;;;;;;;;;
2021/03/25 23:24:30;;;;;;;22.70;17.27;;;8.00;93.50;;;;;;6120339;23;20397;-89
2021/03/25 23:27:09;;;;;;;21.25;16.70;;;;;;;;;;6183088;23;20144;-88
2021/03/25 23:30:06;;;;;;;21.43;17.07;;;8.10;96.00;;;;;;6124548;23;20154;-88
2021/03/25 23:33:13;;;;;;;27.00;17.60;;;8.10;96.90;;;;;;6174029;23;20386;-89
2021/03/25 23:36:45;;;;;;;24.63;18.63;;;7.90;95.70;;;;;;6174554;23;20375;-88
2021/03/25 23:39:38;;;;;;;;;;;;;;;;;;;;;
2021/03/25 23:46:14;;;;;;;26.57;19.33;;;8.00;96.80;;;;;;6120306;23;20389;-88
2021/03/25 23:49:19;;;;;;;22.57;17.47;;;7.80;82.60;;;;;;6124128;23;20396;-89
2021/03/25 23:52:23;;;;;;;25.60;18.30;;;7.80;81.50;;;;;;6179383;23;20389;-88
2021/03/25 23:55:26;;;;;;;24.67;18.13;;;8.20;82.20;;;;;;6132630;23;20380;-89
2021/03/25 23:58:56;;;;;;;25.40;17.90;;;10.20;84.20;;;;;;6187360;23;20434;-88
